Aérodrome :
LOGIN :

S'inscrire | Disclaimer

   EN    FR    IT 

 










Légende :    VFR   VFR Marginal   IFR   IFR Intensif   IFR Très Intensif
Visi : 
Plafond : 
>= 8 km
>= 3000ft
5 à 8 km
1000 à 3000 ft
1500m à 5 km
500 à 1000 ft
800 à 1500m
200 à 500 ft
< 800m
< 200 ft
Symboles :   Orages  Brouillard  Fortes neiges  Fortes précipitations  Vent > 20 kt
SIGMETs :   Divers  Orages  Givrage  Turbulence  Onde Orograph.  Cendres Volcan.







- Altitude de l'aérodrome : 423 ft
- Code IATA : PIS
- Voir les cartes d'approche


LFBI - Poitiers

DERNIER METAR :
  • 210430Z AUTO 23013KT 9999 BKN013 OVC031 19/17 Q1014 TEMPO BKN008

METARs EXPIRÉS :
  • 210400Z AUTO 23012KT 9999 OVC011 18/17 Q1014 TEMPO BKN008
  • 210330Z AUTO 23013KT 9999 OVC011 18/17 Q1014 TEMPO BKN008
  • 210300Z AUTO 23013KT 9999 BKN011 OVC200 18/17 Q1014 TEMPO BKN008
  • 210230Z AUTO 24013KT 9999 BKN010 BKN100 OVC200 18/17 Q1014 NOSIG
  • 210200Z AUTO 23012KT 9999 BKN010 BKN210 BKN230 18/17 Q1014 TEMPO NSC

TAF AMD TAF LFBI
Valide du 21 à 01h jusqu'au 22 à 00h UTC


210148Z 2101/2124 24008KT CAVOK
TEMPO 2101/2107 BKN008
BECMG 2103/2105 BKN014
BECMG 2107/2109 30008KT
TEMPO 2107/2111 4000 -RA BKN008
BECMG 2108/2110 BKN030
BECMG 2111/2113 CAVOK
BECMG 2116/2118 VRB02KT
Pas de NOTAMs connus pour ce terrain.



MET'MAP, la Météo Aéronautique d'un coup d'oeil ! - Copyright ORBIFLY Décembre 2007 - Disclaimer

ORBIFLY MET'MAP TEAM :

Programmation & Développement : Alexandra Zaïnal
Conception & Développement : Baudouin d'Aumeries
Co-Programmation & Développement : Marc-Olivier Méhu
Soutien technique & logistique : Manuel Goepfert

Contact : metmap@orbifly.com




SOURCES & CREDITS :

   NOAA